createdAt,value
2019-06-07T00:00:40.340Z,11.70
2019-06-07T00:03:10.601Z,13.77
2019-06-07T00:05:37.460Z,14.97
2019-06-07T00:08:11.167Z,20.17
2019-06-07T00:10:36.985Z,21.20
2019-06-07T00:13:04.613Z,15.53
2019-06-07T00:15:32.328Z,18.87
2019-06-07T00:18:00.152Z,20.77
2019-06-07T00:20:27.809Z,17.60
2019-06-07T00:22:55.752Z,17.93
2019-06-07T00:25:24.563Z,16.97
2019-06-07T00:27:53.021Z,22.67
2019-06-07T00:30:40.102Z,21.00
2019-06-07T00:32:51.619Z,20.00
2019-06-07T00:35:21.039Z,20.63
2019-06-07T00:37:48.665Z,21.90
2019-06-07T00:40:25.349Z,20.33
2019-06-07T00:42:46.768Z,22.23
2019-06-07T00:45:19.000Z,19.67
2019-06-07T00:47:44.128Z,22.33
2019-06-07T00:50:13.765Z,21.80
2019-06-07T00:53:14.078Z,23.70
2019-06-07T00:55:15.251Z,23.03
2019-06-07T00:57:41.811Z,19.57
2019-06-07T01:00:12.181Z,15.50
2019-06-07T01:02:40.041Z,18.63
2019-06-07T01:05:08.668Z,24.97
2019-06-07T01:07:36.786Z,20.30
2019-06-07T01:10:04.835Z,20.00
2019-06-07T01:12:32.732Z,18.87
2019-06-07T01:15:00.774Z,20.20
2019-06-07T01:17:40.782Z,17.67
2019-06-07T01:19:59.044Z,25.03
2019-06-07T01:22:28.901Z,29.60
2019-06-07T01:24:56.267Z,28.60
2019-06-07T01:27:25.533Z,25.43
2019-06-07T01:29:53.492Z,24.13
2019-06-07T01:32:23.878Z,23.27
2019-06-07T01:34:52.210Z,26.87
2019-06-07T01:37:22.591Z,33.13
2019-06-07T01:39:49.767Z,31.40
2019-06-07T01:42:18.642Z,30.10
2019-06-07T01:44:47.376Z,26.10
2019-06-07T01:47:15.513Z,27.83
2019-06-07T01:49:44.233Z,30.47
2019-06-07T01:52:11.897Z,29.63
2019-06-07T01:54:55.932Z,24.00
2019-06-07T01:57:30.529Z,27.17
2019-06-07T01:59:57.667Z,30.63
2019-06-07T02:02:28.242Z,32.73
2019-06-07T02:04:55.249Z,31.47
2019-06-07T02:07:25.814Z,35.03
2019-06-07T02:09:52.975Z,32.70
2019-06-07T02:12:28.075Z,31.20
2019-06-07T02:14:51.181Z,26.30
2019-06-07T02:17:20.369Z,24.90
2019-06-07T02:19:48.298Z,28.27
2019-06-07T02:22:16.458Z,25.00
2019-06-07T02:24:45.163Z,23.30
2019-06-07T02:27:12.855Z,22.73
2019-06-07T02:29:40.407Z,25.80
2019-06-07T02:32:08.036Z,25.67
2019-06-07T02:34:39.233Z,24.73
2019-06-07T02:37:05.472Z,25.20
2019-06-07T02:39:38.093Z,25.37
2019-06-07T02:42:03.939Z,28.00
2019-06-07T02:44:37.867Z,28.67
2019-06-07T02:47:01.735Z,27.37
2019-06-07T02:49:36.234Z,23.80
2019-06-07T02:51:58.791Z,31.57
2019-06-07T02:54:27.450Z,27.97
2019-06-07T02:56:59.065Z,23.43
2019-06-07T02:59:52.692Z,25.43
2019-06-07T03:01:55.848Z,23.63
2019-06-07T03:04:27.197Z,21.70
2019-06-07T03:06:54.144Z,22.73
2019-06-07T03:09:21.683Z,26.93
2019-06-07T03:11:50.140Z,26.23
2019-06-07T03:14:19.535Z,24.67
2019-06-07T03:16:56.108Z,25.80
2019-06-07T03:19:41.991Z,25.23
2019-06-07T03:22:09.605Z,26.90
2019-06-07T03:24:42.028Z,28.17
2019-06-07T03:27:33.974Z,27.97
2019-06-07T03:29:41.204Z,27.77
2019-06-07T03:32:08.514Z,25.90
2019-06-07T03:34:41.296Z,27.83
2019-06-07T03:37:05.747Z,25.93
2019-06-07T03:39:34.316Z,27.63
2019-06-07T03:42:06.748Z,23.57
2019-06-07T03:44:37.774Z,30.43
2019-06-07T03:47:03.777Z,28.27
2019-06-07T03:49:38.741Z,26.93
2019-06-07T03:52:02.000Z,26.70
2019-06-07T03:54:29.748Z,33.83
2019-06-07T03:56:57.363Z,29.10
2019-06-07T03:59:25.482Z,29.23
2019-06-07T04:01:53.980Z,25.87
2019-06-07T04:04:21.612Z,25.40
2019-06-07T04:06:49.164Z,25.80
2019-06-07T04:09:16.784Z,24.37
2019-06-07T04:11:44.416Z,23.07
2019-06-07T04:14:12.134Z,22.57
2019-06-07T04:16:43.634Z,24.50
2019-06-07T04:19:10.027Z,23.47
2019-06-07T04:21:42.838Z,32.87
2019-06-07T04:24:09.404Z,33.23
2019-06-07T04:26:42.533Z,20.77
2019-06-07T04:29:32.580Z,17.47
2019-06-07T04:31:42.855Z,15.43
2019-06-07T04:34:09.879Z,12.87
2019-06-07T04:36:54.714Z,12.13
2019-06-07T04:39:07.806Z,13.37
2019-06-07T04:41:37.242Z,10.00
2019-06-07T04:44:05.479Z,9.43
2019-06-07T04:46:35.186Z,12.63
2019-06-07T04:49:04.001Z,9.50
2019-06-07T04:51:32.352Z,8.73
2019-06-07T04:54:01.551Z,13.90
2019-06-07T04:56:30.722Z,9.40
2019-06-07T04:58:59.317Z,11.03
2019-06-07T05:01:30.624Z,8.30
2019-06-07T05:03:57.557Z,8.47
2019-06-07T05:06:25.699Z,9.03
2019-06-07T05:08:53.484Z,10.13
2019-06-07T05:11:21.424Z,10.03
2019-06-07T05:13:49.086Z,11.27
2019-06-07T05:16:16.759Z,11.73
2019-06-07T05:18:44.160Z,10.67
2019-06-07T05:21:11.885Z,10.70
2019-06-07T05:24:05.278Z,9.20
2019-06-07T05:26:09.472Z,10.70
2019-06-07T05:28:42.325Z,10.07
2019-06-07T05:31:08.187Z,9.43
2019-06-07T05:33:38.104Z,9.57
2019-06-07T05:36:05.823Z,10.27
2019-06-07T05:38:33.624Z,10.40
2019-06-07T05:41:01.333Z,12.10
2019-06-07T05:43:35.116Z,9.70
2019-06-07T05:46:00.724Z,9.87
2019-06-07T05:48:29.118Z,9.50
2019-06-07T05:50:57.823Z,9.00
2019-06-07T05:53:26.519Z,9.17
2019-06-07T05:55:55.725Z,9.20
2019-06-07T05:58:24.524Z,8.50
2019-06-07T06:00:52.384Z,8.30
2019-06-07T06:03:20.748Z,7.90
2019-06-07T06:05:54.936Z,8.27
2019-06-07T06:08:18.233Z,11.30
2019-06-07T06:10:48.695Z,7.90
2019-06-07T06:13:15.563Z,8.07
2019-06-07T06:15:56.037Z,7.80
2019-06-07T06:18:13.168Z,8.30
2019-06-07T06:21:04.686Z,7.50
2019-06-07T06:23:10.263Z,7.53
2019-06-07T06:25:41.515Z,7.50
2019-06-07T06:28:12.255Z,8.07
2019-06-07T06:30:38.147Z,7.90
2019-06-07T06:33:06.007Z,7.57
2019-06-07T06:35:33.615Z,8.30
2019-06-07T06:38:01.373Z,7.60
2019-06-07T06:40:29.330Z,6.67
2019-06-07T06:42:57.375Z,6.47
2019-06-07T06:45:25.523Z,5.67
2019-06-07T06:47:53.364Z,6.90
2019-06-07T06:50:21.054Z,6.83
2019-06-07T06:52:53.615Z,7.43
2019-06-07T06:55:18.636Z,6.27
2019-06-07T06:57:48.359Z,8.43
2019-06-07T07:00:17.008Z,6.23
2019-06-07T07:03:32.592Z,5.93
2019-06-07T07:05:15.992Z,5.70
2019-06-07T07:07:45.418Z,6.00
2019-06-07T07:10:24.649Z,6.03
2019-06-07T07:12:52.554Z,6.37
2019-06-07T07:15:20.311Z,5.70
2019-06-07T07:18:02.603Z,5.13
2019-06-07T07:20:17.539Z,5.43
2019-06-07T07:22:47.884Z,6.80
2019-06-07T07:25:15.135Z,4.77
2019-06-07T07:27:42.683Z,5.53
2019-06-07T07:30:36.205Z,5.83
2019-06-07T07:32:45.563Z,5.57
2019-06-07T07:35:12.514Z,6.10
2019-06-07T07:37:40.176Z,6.27
2019-06-07T07:40:48.055Z,5.27
2019-06-07T07:42:37.922Z,5.10
2019-06-07T07:45:05.634Z,4.87
2019-06-07T07:47:34.525Z,6.57
2019-06-07T07:50:02.781Z,5.03
2019-06-07T07:52:30.328Z,5.37
2019-06-07T07:55:00.443Z,5.23
2019-06-07T07:57:29.352Z,4.97
2019-06-07T08:00:36.141Z,5.57
2019-06-07T08:02:28.049Z,4.70
2019-06-07T08:07:25.292Z,4.10
2019-06-07T08:09:59.560Z,4.63
2019-06-07T08:12:22.634Z,4.20
2019-06-07T08:14:53.524Z,4.50
2019-06-07T08:17:20.651Z,5.00
2019-06-07T08:19:49.945Z,5.00
2019-06-07T08:22:18.127Z,4.90
2019-06-07T08:24:50.028Z,5.50
2019-06-07T08:27:25.803Z,4.40
2019-06-07T08:30:03.638Z,4.07
2019-06-07T08:32:15.442Z,5.37
2019-06-07T08:34:43.165Z,5.10
2019-06-07T08:37:10.791Z,5.10
2019-06-07T08:39:39.591Z,4.23
2019-06-07T08:42:17.543Z,3.83
2019-06-07T08:44:37.500Z,3.67
2019-06-07T08:47:19.949Z,3.70
2019-06-07T08:49:35.139Z,4.63
2019-06-07T08:52:07.935Z,3.00
2019-06-07T08:54:32.521Z,3.50
2019-06-07T08:57:19.395Z,3.53
2019-06-07T08:59:30.911Z,3.43
2019-06-07T09:02:03.288Z,4.13
2019-06-07T09:04:28.709Z,3.30
2019-06-07T09:07:14.685Z,3.63
2019-06-07T09:09:26.109Z,3.77
2019-06-07T09:11:54.703Z,3.50
2019-06-07T09:14:23.599Z,3.20
2019-06-07T09:16:51.704Z,4.03
2019-06-07T09:19:20.118Z,3.87
2019-06-07T09:21:48.591Z,3.37
2019-06-07T09:24:16.151Z,2.87
2019-06-07T09:26:43.766Z,3.77
2019-06-07T09:29:12.257Z,3.77
2019-06-07T09:31:52.153Z,3.67
2019-06-07T09:34:13.897Z,3.73
2019-06-07T09:36:39.771Z,5.10
2019-06-07T09:39:12.106Z,6.13
2019-06-07T09:41:47.790Z,3.13
2019-06-07T09:44:23.256Z,2.80
2019-06-07T09:46:36.434Z,3.40
2019-06-07T09:49:24.161Z,3.43
2019-06-07T09:51:33.907Z,4.20
2019-06-07T09:54:06.891Z,3.03
2019-06-07T09:56:31.627Z,3.23
2019-06-07T09:59:02.602Z,3.20
2019-06-07T10:01:29.247Z,3.27
2019-06-07T10:04:02.354Z,3.07
2019-06-07T10:06:26.352Z,4.10
2019-06-07T10:10:04.765Z,3.07
2019-06-07T10:11:24.359Z,4.33
2019-06-07T10:13:52.441Z,3.33
2019-06-07T10:16:20.370Z,3.73
2019-06-07T10:18:48.098Z,3.37
2019-06-07T10:21:16.099Z,3.83
2019-06-07T10:23:43.803Z,4.47
2019-06-07T10:26:11.372Z,4.83
2019-06-07T10:28:39.244Z,3.57
2019-06-07T10:31:07.785Z,3.83
2019-06-07T10:33:36.726Z,4.67
2019-06-07T10:36:04.803Z,3.50
2019-06-07T10:38:32.554Z,3.60
2019-06-07T10:41:00.797Z,4.37
2019-06-07T10:43:28.953Z,3.73
2019-06-07T10:45:56.778Z,3.43
2019-06-07T10:48:25.227Z,3.63
2019-06-07T10:50:53.127Z,5.70
2019-06-07T10:53:20.763Z,3.70
2019-06-07T10:55:48.960Z,4.10
2019-06-07T10:58:17.041Z,3.50
2019-06-07T11:00:46.363Z,3.60
2019-06-07T11:03:14.947Z,3.50
2019-06-07T11:05:43.439Z,3.53
2019-06-07T11:08:13.150Z,5.20
2019-06-07T11:10:40.959Z,3.70
2019-06-07T11:13:08.514Z,4.23
2019-06-07T11:15:36.156Z,3.80
2019-06-07T11:18:03.814Z,3.77
2019-06-07T11:20:31.554Z,4.47
2019-06-07T11:22:59.601Z,3.93
2019-06-07T11:25:27.196Z,3.97
2019-06-07T11:27:56.667Z,4.93
2019-06-07T11:30:26.539Z,5.87
2019-06-07T11:32:54.453Z,4.60
2019-06-07T11:35:21.951Z,4.33
2019-06-07T11:37:49.458Z,3.90
2019-06-07T11:40:30.792Z,3.60
2019-06-07T11:42:47.353Z,4.27
2019-06-07T11:45:15.609Z,5.73
2019-06-07T11:47:43.195Z,5.33
2019-06-07T11:50:11.769Z,4.47
2019-06-07T11:52:40.421Z,4.83
2019-06-07T11:55:08.991Z,4.10
2019-06-07T11:57:37.759Z,4.87
2019-06-07T12:00:07.368Z,4.13
2019-06-07T12:02:35.067Z,5.20
2019-06-07T12:05:04.925Z,4.47
2019-06-07T12:07:32.855Z,4.17
2019-06-07T12:10:00.378Z,4.70
2019-06-07T12:12:28.251Z,4.80
2019-06-07T12:14:56.027Z,4.70
2019-06-07T12:17:23.991Z,4.87
2019-06-07T12:19:52.476Z,4.60
2019-06-07T12:22:20.172Z,6.17
2019-06-07T12:24:48.525Z,4.73
2019-06-07T12:27:16.732Z,5.30
2019-06-07T12:29:44.347Z,4.50
2019-06-07T12:32:13.235Z,4.30
2019-06-07T12:34:41.548Z,4.30
2019-06-07T12:37:09.411Z,5.13
2019-06-07T12:39:40.766Z,5.57
2019-06-07T12:42:08.338Z,4.43
2019-06-07T12:44:36.291Z,5.60
2019-06-07T12:47:04.223Z,6.23
2019-06-07T12:49:32.459Z,4.63
2019-06-07T12:52:01.464Z,4.87
2019-06-07T12:54:29.321Z,4.50
2019-06-07T12:56:57.084Z,4.60
2019-06-07T12:59:24.701Z,4.53
2019-06-07T13:01:52.444Z,3.97
2019-06-07T13:04:20.538Z,5.47
2019-06-07T13:06:48.542Z,4.67
2019-06-07T13:09:17.678Z,4.43
2019-06-07T13:11:46.908Z,6.20
2019-06-07T13:14:16.055Z,4.10
2019-06-07T13:16:43.651Z,4.17
2019-06-07T13:19:11.460Z,6.20
2019-06-07T13:21:39.542Z,5.03
2019-06-07T13:24:07.119Z,4.47
2019-06-07T13:26:35.051Z,4.50
2019-06-07T13:29:02.950Z,3.80
2019-06-07T13:31:30.608Z,4.57
2019-06-07T13:33:58.097Z,4.73
2019-06-07T13:36:26.183Z,4.83
2019-06-07T13:38:54.343Z,3.90
2019-06-07T13:41:37.996Z,4.30
2019-06-07T13:43:52.259Z,4.00
2019-06-07T13:46:20.952Z,4.23
2019-06-07T13:48:49.370Z,4.30
2019-06-07T13:51:19.116Z,4.53
2019-06-07T13:53:46.878Z,5.43
2019-06-07T13:56:14.723Z,5.70
2019-06-07T13:58:43.427Z,4.50
2019-06-07T14:01:11.491Z,4.00
2019-06-07T14:03:39.095Z,4.20
2019-06-07T14:06:06.873Z,4.63
2019-06-07T14:08:34.819Z,4.30
2019-06-07T14:11:02.569Z,5.13
2019-06-07T14:13:30.778Z,4.10
2019-06-07T14:15:58.848Z,4.90
2019-06-07T14:18:26.486Z,3.70
2019-06-07T14:20:54.976Z,5.43
2019-06-07T14:23:39.066Z,4.70
2019-06-07T14:25:52.626Z,4.13
2019-06-07T14:28:23.675Z,3.47
2019-06-07T14:30:50.149Z,3.70
2019-06-07T14:33:18.841Z,3.67
2019-06-07T14:35:46.507Z,3.77
2019-06-07T14:38:14.489Z,3.63
2019-06-07T14:40:42.432Z,3.47
2019-06-07T14:43:10.341Z,3.50
2019-06-07T14:45:38.563Z,5.10
2019-06-07T14:48:06.339Z,4.47
2019-06-07T14:50:34.510Z,4.40
2019-06-07T14:53:02.422Z,3.80
2019-06-07T14:55:31.243Z,5.37
2019-06-07T14:57:58.987Z,3.97
2019-06-07T15:00:46.559Z,4.83
2019-06-07T15:03:14.112Z,3.60
2019-06-07T15:05:41.772Z,6.23
2019-06-07T15:08:09.963Z,4.00
2019-06-07T15:10:39.278Z,4.07
2019-06-07T15:13:07.971Z,6.07
2019-06-07T15:15:35.575Z,5.93
2019-06-07T15:18:03.640Z,4.93
2019-06-07T15:20:32.162Z,4.10
2019-06-07T15:23:00.041Z,4.93
2019-06-07T15:25:27.475Z,5.37
2019-06-07T15:27:55.778Z,3.30
2019-06-07T15:30:24.054Z,3.57
2019-06-07T15:32:52.535Z,4.33
2019-06-07T15:35:20.667Z,4.53
2019-06-07T15:37:50.335Z,4.13
2019-06-07T15:40:19.222Z,4.00
2019-06-07T15:42:52.811Z,4.10
2019-06-07T15:45:17.388Z,3.63
2019-06-07T15:47:45.215Z,4.30
2019-06-07T15:50:14.646Z,3.50
2019-06-07T15:52:43.292Z,3.53
2019-06-07T15:55:11.707Z,4.23
2019-06-07T15:57:39.964Z,3.40
2019-06-07T16:00:10.367Z,3.60
2019-06-07T16:02:39.733Z,3.87
2019-06-07T16:05:08.094Z,4.20
2019-06-07T16:07:36.231Z,4.27
2019-06-07T16:10:05.951Z,3.93
2019-06-07T16:12:34.568Z,4.33
2019-06-07T16:15:02.927Z,3.33
2019-06-07T16:17:30.668Z,5.20
2019-06-07T16:19:59.164Z,4.13
2019-06-07T16:22:27.060Z,6.73
2019-06-07T16:24:54.639Z,3.70
2019-06-07T16:27:22.281Z,3.60
2019-06-07T16:29:50.236Z,5.40
2019-06-07T16:32:18.085Z,4.67
2019-06-07T16:34:46.240Z,4.50
2019-06-07T16:37:14.022Z,5.93
2019-06-07T16:39:42.311Z,4.37
2019-06-07T16:42:09.930Z,6.70
2019-06-07T16:44:38.779Z,5.23
2019-06-07T16:47:07.608Z,6.70
2019-06-07T16:49:36.751Z,5.43
2019-06-07T16:52:05.643Z,14.97
2019-06-07T16:54:35.592Z,12.87
2019-06-07T16:57:03.402Z,9.83
2019-06-07T16:59:31.491Z,6.70
2019-06-07T17:02:00.073Z,5.37
2019-06-07T17:04:27.931Z,6.23
2019-06-07T17:06:56.148Z,4.53
2019-06-07T17:09:24.035Z,6.20
2019-06-07T17:11:51.919Z,7.67
2019-06-07T17:14:20.478Z,4.87
2019-06-07T17:16:50.128Z,4.13
2019-06-07T17:19:18.239Z,5.80
2019-06-07T17:21:47.394Z,5.47
2019-06-07T17:24:16.303Z,2.93
2019-06-07T17:26:45.439Z,2.87
2019-06-07T17:29:13.969Z,4.17
2019-06-07T17:31:42.175Z,9.93
2019-06-07T17:34:09.851Z,10.40
2019-06-07T17:36:37.917Z,5.57
2019-06-07T17:39:07.144Z,6.10
2019-06-07T17:41:50.625Z,11.80
2019-06-07T17:44:04.891Z,7.70
2019-06-07T17:46:32.647Z,3.57
2019-06-07T17:49:01.702Z,8.23
2019-06-07T17:51:29.531Z,5.03
2019-06-07T17:53:57.403Z,8.63
2019-06-07T17:56:25.375Z,4.60
2019-06-07T17:58:53.106Z,2.53
2019-06-07T18:01:21.179Z,6.27
2019-06-07T18:03:49.190Z,5.07
2019-06-07T18:06:18.219Z,5.03
2019-06-07T18:08:47.510Z,3.33
2019-06-07T18:11:19.784Z,4.53
2019-06-07T18:13:48.262Z,4.90
2019-06-07T18:16:16.628Z,8.03
2019-06-07T18:18:44.493Z,7.17
2019-06-07T18:21:13.090Z,4.10
2019-06-07T18:23:40.864Z,1.90
2019-06-07T18:26:08.440Z,2.93
2019-06-07T18:28:36.580Z,2.60
2019-06-07T18:31:04.303Z,5.37
2019-06-07T18:33:32.022Z,1.80
2019-06-07T18:35:59.891Z,2.90
2019-06-07T18:38:27.843Z,2.77
2019-06-07T18:40:56.119Z,2.33
2019-06-07T18:46:27.749Z,1.73
2019-06-07T18:48:55.632Z,0.90
2019-06-07T18:51:24.871Z,2.47
2019-06-07T18:53:53.684Z,0.87
2019-06-07T18:56:21.639Z,1.43
2019-06-07T18:58:49.361Z,1.13
2019-06-07T19:01:17.087Z,1.30
2019-06-07T19:03:47.020Z,3.23
2019-06-07T19:06:14.506Z,0.70
2019-06-07T19:08:42.547Z,1.70
2019-06-07T19:11:10.769Z,4.77
2019-06-07T19:13:39.274Z,2.43
2019-06-07T19:16:07.095Z,1.43
2019-06-07T19:18:34.786Z,1.33
2019-06-07T19:21:02.334Z,1.13
2019-06-07T19:23:30.508Z,1.33
2019-06-07T19:25:58.584Z,2.27
2019-06-07T19:28:26.359Z,1.13
2019-06-07T19:30:54.989Z,0.83
2019-06-07T19:33:23.567Z,2.67
2019-06-07T19:35:51.449Z,2.20
2019-06-07T19:38:19.294Z,0.97
2019-06-07T19:40:47.264Z,2.03
2019-06-07T19:43:15.008Z,0.97
2019-06-07T19:45:42.664Z,1.43
2019-06-07T19:48:10.857Z,0.70
2019-06-07T19:50:38.739Z,0.97
2019-06-07T19:53:06.488Z,1.13
2019-06-07T19:55:34.269Z,2.20
2019-06-07T19:58:03.772Z,0.60
2019-06-07T20:00:31.622Z,1.17
2019-06-07T20:03:00.009Z,1.00
2019-06-07T20:05:27.761Z,0.53
2019-06-07T20:07:56.487Z,0.93
2019-06-07T20:10:24.291Z,1.40
2019-06-07T20:12:52.493Z,2.57
2019-06-07T20:15:28.373Z,1.53
2019-06-07T20:17:50.439Z,0.70
2019-06-07T20:20:18.164Z,1.83
2019-06-07T20:22:46.159Z,0.80
2019-06-07T20:25:15.966Z,0.80
2019-06-07T20:27:43.979Z,0.67
2019-06-07T20:30:12.157Z,0.70
2019-06-07T20:32:39.865Z,0.70
2019-06-07T20:35:10.689Z,0.63
2019-06-07T20:37:38.935Z,2.10
2019-06-07T20:40:22.828Z,0.70
2019-06-07T20:42:37.720Z,0.80
2019-06-07T20:45:08.138Z,0.70
2019-06-07T20:47:37.515Z,0.90
2019-06-07T20:50:06.292Z,1.97
2019-06-07T20:52:34.361Z,1.33
2019-06-07T20:55:03.087Z,1.97
2019-06-07T20:57:31.842Z,0.90
2019-06-07T21:00:02.421Z,2.27
2019-06-07T21:02:29.471Z,3.13
2019-06-07T21:04:57.532Z,1.07
2019-06-07T21:07:25.492Z,0.90
2019-06-07T21:09:53.155Z,2.17
2019-06-07T21:12:20.776Z,1.57
2019-06-07T21:14:48.320Z,0.90
2019-06-07T21:17:15.931Z,1.10
2019-06-07T21:19:43.727Z,1.30
2019-06-07T21:22:11.789Z,3.87
2019-06-07T21:24:39.690Z,1.13
2019-06-07T21:27:09.390Z,1.70
2019-06-07T21:29:37.889Z,1.43
2019-06-07T21:32:05.779Z,2.23
2019-06-07T21:34:34.458Z,0.90
2019-06-07T21:37:03.646Z,2.17
2019-06-07T21:39:31.929Z,1.10
2019-06-07T21:42:02.130Z,2.20
2019-06-07T21:44:30.192Z,2.00
2019-06-07T21:46:57.899Z,1.13
2019-06-07T21:49:25.883Z,1.53
2019-06-07T21:51:55.741Z,0.70
2019-06-07T21:54:23.742Z,1.90
2019-06-07T21:56:51.503Z,1.03
2019-06-07T21:59:19.944Z,1.17
2019-06-07T22:01:47.732Z,0.93
2019-06-07T22:04:15.547Z,3.10
2019-06-07T22:06:43.303Z,0.80
2019-06-07T22:09:12.419Z,0.80
2019-06-07T22:11:40.190Z,0.77
2019-06-07T22:14:08.534Z,1.20
2019-06-07T22:16:36.942Z,1.33
2019-06-07T22:19:06.403Z,1.20
2019-06-07T22:21:34.278Z,1.40
2019-06-07T22:24:02.598Z,1.00
2019-06-07T22:26:30.644Z,1.53
2019-06-07T22:28:58.215Z,1.17
2019-06-07T22:31:26.554Z,2.40
2019-06-07T22:33:54.235Z,1.17
2019-06-07T22:36:35.283Z,1.10
2019-06-07T22:39:04.230Z,1.53
2019-06-07T22:41:33.097Z,1.20
2019-06-07T22:44:01.073Z,0.93
2019-06-07T22:46:37.349Z,0.80
2019-06-07T22:48:58.443Z,1.90
2019-06-07T22:51:26.522Z,2.60
2019-06-07T22:53:54.229Z,0.90
2019-06-07T22:56:27.799Z,1.20
2019-06-07T22:58:55.782Z,0.93
2019-06-07T23:01:23.608Z,0.90
2019-06-07T23:03:51.174Z,2.80
2019-06-07T23:06:19.183Z,1.23
2019-06-07T23:08:47.111Z,1.23
2019-06-07T23:11:15.183Z,3.77
2019-06-07T23:13:43.681Z,2.37
2019-06-07T23:16:11.490Z,1.77
2019-06-07T23:18:39.155Z,1.53
2019-06-07T23:21:07.132Z,1.00
2019-06-07T23:23:35.019Z,1.03
2019-06-07T23:26:03.203Z,1.37
2019-06-07T23:28:31.014Z,1.00
2019-06-07T23:30:58.688Z,1.07
2019-06-07T23:33:26.075Z,16.47
2019-06-07T23:35:53.728Z,1.10
2019-06-07T23:38:22.085Z,2.53
2019-06-07T23:40:50.021Z,2.43
2019-06-07T23:43:19.618Z,1.93
2019-06-07T23:45:47.664Z,1.10
2019-06-07T23:48:15.414Z,1.30
2019-06-07T23:50:43.283Z,0.90
2019-06-07T23:53:11.676Z,1.17
2019-06-07T23:55:40.050Z,2.00
2019-06-07T23:58:07.700Z,2.40
